sensor_id;sensor_type;location;lat;lon;timestamp;pressure;altitude;pressure_sealevel;temperature;humidity
21574;BME280;10948;48.706;9.258;2023-06-10T00:02:13;97349.84;;;17.45;84.27
21574;BME280;10948;48.706;9.258;2023-06-10T00:04:38;97344.22;;;17.21;85.80
21574;BME280;10948;48.706;9.258;2023-06-10T00:07:04;97344.88;;;17.33;86.04
21574;BME280;10948;48.706;9.258;2023-06-10T00:09:34;97349.88;;;17.17;86.68
21574;BME280;10948;48.706;9.258;2023-06-10T00:11:59;97338.22;;;17.29;88.07
21574;BME280;10948;48.706;9.258;2023-06-10T00:14:25;97335.47;;;17.30;87.25
21574;BME280;10948;48.706;9.258;2023-06-10T00:16:50;97347.72;;;17.03;89.05
21574;BME280;10948;48.706;9.258;2023-06-10T00:19:17;97350.72;;;17.27;87.59
21574;BME280;10948;48.706;9.258;2023-06-10T00:21:43;97340.16;;;17.36;87.24
21574;BME280;10948;48.706;9.258;2023-06-10T00:24:10;97340.81;;;17.48;85.19
21574;BME280;10948;48.706;9.258;2023-06-10T00:26:37;97348.47;;;17.41;85.57
21574;BME280;10948;48.706;9.258;2023-06-10T00:29:02;97339.91;;;17.20;85.85
21574;BME280;10948;48.706;9.258;2023-06-10T00:31:27;97348.41;;;17.05;89.29
21574;BME280;10948;48.706;9.258;2023-06-10T00:33:53;97342.19;;;16.97;90.03
21574;BME280;10948;48.706;9.258;2023-06-10T00:36:18;97339.06;;;17.29;87.96
21574;BME280;10948;48.706;9.258;2023-06-10T00:38:43;97332.69;;;17.32;86.37
21574;BME280;10948;48.706;9.258;2023-06-10T00:41:09;97337.09;;;16.86;89.89
21574;BME280;10948;48.706;9.258;2023-06-10T00:43:34;97341.88;;;17.09;89.32
21574;BME280;10948;48.706;9.258;2023-06-10T00:46:00;97339.97;;;17.11;88.97
21574;BME280;10948;48.706;9.258;2023-06-10T00:48:25;97338.28;;;17.10;88.33
21574;BME280;10948;48.706;9.258;2023-06-10T00:50:51;97340.00;;;16.83;90.43
21574;BME280;10948;48.706;9.258;2023-06-10T00:53:17;97339.47;;;16.70;90.37
21574;BME280;10948;48.706;9.258;2023-06-10T00:55:42;97336.00;;;16.41;93.28
21574;BME280;10948;48.706;9.258;2023-06-10T00:58:08;97346.53;;;16.60;94.40
21574;BME280;10948;48.706;9.258;2023-06-10T01:00:34;97344.75;;;16.60;94.78
21574;BME280;10948;48.706;9.258;2023-06-10T01:02:59;97341.13;;;16.52;92.76
21574;BME280;10948;48.706;9.258;2023-06-10T01:05:24;97339.34;;;16.62;92.07
21574;BME280;10948;48.706;9.258;2023-06-10T01:12:58;97338.94;;;16.38;93.42
21574;BME280;10948;48.706;9.258;2023-06-10T01:15:24;97333.38;;;16.22;96.73
21574;BME280;10948;48.706;9.258;2023-06-10T01:18:02;97337.84;;;16.50;93.00
21574;BME280;10948;48.706;9.258;2023-06-10T01:20:28;97329.81;;;16.42;93.21
21574;BME280;10948;48.706;9.258;2023-06-10T01:22:54;97329.47;;;16.16;95.97
21574;BME280;10948;48.706;9.258;2023-06-10T01:25:21;97331.13;;;15.98;96.58
21574;BME280;10948;48.706;9.258;2023-06-10T01:27:52;97329.06;;;16.21;96.74
21574;BME280;10948;48.706;9.258;2023-06-10T01:30:18;97329.78;;;16.23;95.97
21574;BME280;10948;48.706;9.258;2023-06-10T01:32:50;97326.34;;;16.41;94.39
21574;BME280;10948;48.706;9.258;2023-06-10T01:35:15;97333.38;;;16.50;93.16
21574;BME280;10948;48.706;9.258;2023-06-10T01:37:42;97330.88;;;16.30;95.79
21574;BME280;10948;48.706;9.258;2023-06-10T01:40:10;97336.94;;;16.21;97.66
21574;BME280;10948;48.706;9.258;2023-06-10T01:42:37;97336.19;;;16.49;95.23
21574;BME280;10948;48.706;9.258;2023-06-10T01:45:02;97338.03;;;16.28;96.19
21574;BME280;10948;48.706;9.258;2023-06-10T01:47:28;97331.16;;;16.36;97.55
21574;BME280;10948;48.706;9.258;2023-06-10T01:49:53;97331.47;;;16.43;95.10
21574;BME280;10948;48.706;9.258;2023-06-10T01:52:18;97335.72;;;16.25;94.25
21574;BME280;10948;48.706;9.258;2023-06-10T01:54:43;97331.41;;;16.05;96.78
21574;BME280;10948;48.706;9.258;2023-06-10T01:57:09;97344.38;;;15.97;97.15
21574;BME280;10948;48.706;9.258;2023-06-10T01:59:34;97338.31;;;16.15;95.83
21574;BME280;10948;48.706;9.258;2023-06-10T02:02:01;97341.38;;;16.20;94.38
21574;BME280;10948;48.706;9.258;2023-06-10T02:04:26;97343.84;;;16.03;96.44
21574;BME280;10948;48.706;9.258;2023-06-10T02:06:51;97342.19;;;16.02;97.69
21574;BME280;10948;48.706;9.258;2023-06-10T02:09:18;97344.78;;;15.92;98.07
21574;BME280;10948;48.706;9.258;2023-06-10T02:11:43;97343.53;;;15.96;97.92
21574;BME280;10948;48.706;9.258;2023-06-10T02:14:09;97346.03;;;15.98;97.41
21574;BME280;10948;48.706;9.258;2023-06-10T02:16:34;97344.03;;;15.62;98.74
21574;BME280;10948;48.706;9.258;2023-06-10T02:18:59;97342.00;;;15.75;99.19
21574;BME280;10948;48.706;9.258;2023-06-10T02:21:25;97347.16;;;16.05;97.93
21574;BME280;10948;48.706;9.258;2023-06-10T02:23:50;97349.50;;;16.08;96.54
21574;BME280;10948;48.706;9.258;2023-06-10T02:26:16;97351.78;;;15.82;97.31
21574;BME280;10948;48.706;9.258;2023-06-10T02:28:44;97348.75;;;15.77;98.76
21574;BME280;10948;48.706;9.258;2023-06-10T02:31:09;97356.47;;;15.79;98.27
21574;BME280;10948;48.706;9.258;2023-06-10T02:33:34;97354.72;;;15.89;96.76
21574;BME280;10948;48.706;9.258;2023-06-10T02:35:59;97357.78;;;15.54;99.81
21574;BME280;10948;48.706;9.258;2023-06-10T02:38:25;97363.16;;;15.53;100.00
21574;BME280;10948;48.706;9.258;2023-06-10T02:40:50;97362.53;;;15.70;100.00
21574;BME280;10948;48.706;9.258;2023-06-10T02:43:15;97358.34;;;15.58;100.00
21574;BME280;10948;48.706;9.258;2023-06-10T02:45:40;97371.31;;;15.50;100.00
21574;BME280;10948;48.706;9.258;2023-06-10T02:48:06;97377.69;;;15.57;100.00
21574;BME280;10948;48.706;9.258;2023-06-10T02:50:31;97378.56;;;15.76;99.37
21574;BME280;10948;48.706;9.258;2023-06-10T02:52:56;97378.81;;;15.64;99.35
21574;BME280;10948;48.706;9.258;2023-06-10T02:55:21;97376.28;;;15.53;100.00
21574;BME280;10948;48.706;9.258;2023-06-10T02:57:46;97370.78;;;15.56;100.00
21574;BME280;10948;48.706;9.258;2023-06-10T03:00:12;97375.47;;;15.52;99.27
21574;BME280;10948;48.706;9.258;2023-06-10T03:02:39;97378.13;;;15.62;100.00
21574;BME280;10948;48.706;9.258;2023-06-10T03:05:04;97382.41;;;15.63;100.00
21574;BME280;10948;48.706;9.258;2023-06-10T03:07:30;97375.91;;;15.67;99.56
21574;BME280;10948;48.706;9.258;2023-06-10T03:09:55;97373.06;;;15.19;100.00
21574;BME280;10948;48.706;9.258;2023-06-10T03:12:21;97376.53;;;15.50;100.00
21574;BME280;10948;48.706;9.258;2023-06-10T03:14:46;97380.13;;;15.49;100.00
21574;BME280;10948;48.706;9.258;2023-06-10T03:17:11;97387.81;;;15.41;100.00
21574;BME280;10948;48.706;9.258;2023-06-10T03:19:36;97385.94;;;15.52;100.00
21574;BME280;10948;48.706;9.258;2023-06-10T03:24:34;97393.59;;;15.35;100.00
21574;BME280;10948;48.706;9.258;2023-06-10T03:27:01;97396.03;;;15.57;100.00
21574;BME280;10948;48.706;9.258;2023-06-10T03:29:27;97395.06;;;15.58;99.74
21574;BME280;10948;48.706;9.258;2023-06-10T03:31:52;97401.06;;;15.39;100.00
21574;BME280;10948;48.706;9.258;2023-06-10T03:34:17;97399.84;;;15.43;100.00
21574;BME280;10948;48.706;9.258;2023-06-10T03:36:42;97402.41;;;15.34;100.00
21574;BME280;10948;48.706;9.258;2023-06-10T03:39:08;97405.78;;;15.25;100.00
21574;BME280;10948;48.706;9.258;2023-06-10T03:41:33;97408.66;;;15.22;100.00
21574;BME280;10948;48.706;9.258;2023-06-10T03:43:59;97407.94;;;15.20;100.00
21574;BME280;10948;48.706;9.258;2023-06-10T03:46:25;97406.75;;;15.24;100.00
21574;BME280;10948;48.706;9.258;2023-06-10T03:48:50;97410.66;;;15.50;100.00
21574;BME280;10948;48.706;9.258;2023-06-10T03:51:16;97412.66;;;15.37;100.00
21574;BME280;10948;48.706;9.258;2023-06-10T03:53:41;97414.47;;;15.46;100.00
21574;BME280;10948;48.706;9.258;2023-06-10T03:56:06;97410.88;;;15.47;100.00
21574;BME280;10948;48.706;9.258;2023-06-10T03:58:31;97415.91;;;15.50;100.00
21574;BME280;10948;48.706;9.258;2023-06-10T04:00:57;97413.31;;;15.59;100.00
21574;BME280;10948;48.706;9.258;2023-06-10T04:03:22;97421.06;;;15.70;100.00
21574;BME280;10948;48.706;9.258;2023-06-10T04:05:48;97415.13;;;16.08;99.59
21574;BME280;10948;48.706;9.258;2023-06-10T04:08:13;97423.66;;;15.91;99.69
21574;BME280;10948;48.706;9.258;2023-06-10T04:10:38;97414.53;;;15.85;99.85
21574;BME280;10948;48.706;9.258;2023-06-10T04:13:03;97414.50;;;16.25;97.82
21574;BME280;10948;48.706;9.258;2023-06-10T04:15:29;97420.78;;;16.43;96.83
21574;BME280;10948;48.706;9.258;2023-06-10T04:17:54;97414.03;;;16.69;94.78
21574;BME280;10948;48.706;9.258;2023-06-10T04:20:20;97421.38;;;16.65;95.22
21574;BME280;10948;48.706;9.258;2023-06-10T04:22:45;97420.38;;;16.47;97.21
21574;BME280;10948;48.706;9.258;2023-06-10T04:25:11;97420.44;;;16.27;99.37
21574;BME280;10948;48.706;9.258;2023-06-10T04:27:36;97431.00;;;16.46;99.56
21574;BME280;10948;48.706;9.258;2023-06-10T04:30:02;97430.19;;;16.92;97.26
21574;BME280;10948;48.706;9.258;2023-06-10T04:32:28;97426.34;;;16.97;95.38
21574;BME280;10948;48.706;9.258;2023-06-10T04:34:53;97425.78;;;17.12;94.33
21574;BME280;10948;48.706;9.258;2023-06-10T04:37:19;97429.72;;;17.35;93.49
21574;BME280;10948;48.706;9.258;2023-06-10T04:39:45;97436.72;;;17.72;92.71
21574;BME280;10948;48.706;9.258;2023-06-10T04:42:10;97430.94;;;17.59;91.40
21574;BME280;10948;48.706;9.258;2023-06-10T04:44:35;97441.69;;;17.85;90.56
21574;BME280;10948;48.706;9.258;2023-06-10T04:47:00;97433.75;;;18.21;89.92
21574;BME280;10948;48.706;9.258;2023-06-10T04:49:26;97430.53;;;18.54;87.64
21574;BME280;10948;48.706;9.258;2023-06-10T04:51:54;97441.16;;;18.62;88.07
21574;BME280;10948;48.706;9.258;2023-06-10T04:54:19;97430.81;;;18.86;86.65
21574;BME280;10948;48.706;9.258;2023-06-10T04:56:44;97427.59;;;18.75;87.11
21574;BME280;10948;48.706;9.258;2023-06-10T04:59:10;97423.78;;;19.30;84.54
21574;BME280;10948;48.706;9.258;2023-06-10T05:01:36;97437.59;;;19.41;83.08
21574;BME280;10948;48.706;9.258;2023-06-10T05:04:01;97434.06;;;19.58;82.63
21574;BME280;10948;48.706;9.258;2023-06-10T05:06:26;97433.81;;;19.69;82.45
21574;BME280;10948;48.706;9.258;2023-06-10T05:08:52;97438.59;;;19.99;81.09
21574;BME280;10948;48.706;9.258;2023-06-10T05:11:17;97441.31;;;20.07;78.68
21574;BME280;10948;48.706;9.258;2023-06-10T05:13:42;97437.13;;;20.38;77.68
21574;BME280;10948;48.706;9.258;2023-06-10T05:16:09;97436.72;;;20.17;77.98
21574;BME280;10948;48.706;9.258;2023-06-10T05:18:34;97434.09;;;20.17;77.67
21574;BME280;10948;48.706;9.258;2023-06-10T05:21:00;97444.25;;;20.87;75.73
21574;BME280;10948;48.706;9.258;2023-06-10T05:23:25;97444.25;;;21.19;75.06
21574;BME280;10948;48.706;9.258;2023-06-10T05:25:50;97437.31;;;20.94;74.44
21574;BME280;10948;48.706;9.258;2023-06-10T05:28:16;97442.28;;;21.13;73.98
21574;BME280;10948;48.706;9.258;2023-06-10T05:30:41;97442.78;;;21.25;73.74
21574;BME280;10948;48.706;9.258;2023-06-10T05:33:06;97443.47;;;22.13;70.11
21574;BME280;10948;48.706;9.258;2023-06-10T05:35:31;97445.66;;;22.79;66.91
21574;BME280;10948;48.706;9.258;2023-06-10T05:37:57;97453.66;;;23.01;66.22
21574;BME280;10948;48.706;9.258;2023-06-10T05:40:22;97443.34;;;23.29;65.45
21574;BME280;10948;48.706;9.258;2023-06-10T05:42:47;97438.72;;;23.45;63.52
21574;BME280;10948;48.706;9.258;2023-06-10T05:45:12;97448.91;;;24.22;59.84
21574;BME280;10948;48.706;9.258;2023-06-10T05:47:38;97453.59;;;24.99;58.13
21574;BME280;10948;48.706;9.258;2023-06-10T05:50:03;97451.28;;;26.48;53.17
21574;BME280;10948;48.706;9.258;2023-06-10T05:52:32;97447.09;;;27.59;49.87
21574;BME280;10948;48.706;9.258;2023-06-10T05:54:57;97453.63;;;27.24;49.62
21574;BME280;10948;48.706;9.258;2023-06-10T05:57:24;97450.72;;;28.49;48.60
21574;BME280;10948;48.706;9.258;2023-06-10T05:59:49;97458.56;;;29.01;47.27
21574;BME280;10948;48.706;9.258;2023-06-10T06:02:15;97455.91;;;29.32;46.47
21574;BME280;10948;48.706;9.258;2023-06-10T06:04:40;97455.91;;;28.24;48.17
21574;BME280;10948;48.706;9.258;2023-06-10T06:07:05;97460.09;;;27.88;49.41
21574;BME280;10948;48.706;9.258;2023-06-10T06:09:31;97466.09;;;26.91;50.69
21574;BME280;10948;48.706;9.258;2023-06-10T06:11:56;97466.81;;;26.31;52.91
21574;BME280;10948;48.706;9.258;2023-06-10T06:14:21;97459.97;;;25.40;54.51
21574;BME280;10948;48.706;9.258;2023-06-10T06:16:46;97459.56;;;24.86;58.63
21574;BME280;10948;48.706;9.258;2023-06-10T06:19:11;97454.59;;;25.19;57.61
21574;BME280;10948;48.706;9.258;2023-06-10T06:21:37;97453.75;;;25.60;57.27
21574;BME280;10948;48.706;9.258;2023-06-10T06:24:02;97448.66;;;25.38;57.42
21574;BME280;10948;48.706;9.258;2023-06-10T06:26:27;97447.66;;;25.39;56.63
21574;BME280;10948;48.706;9.258;2023-06-10T06:28:52;97457.78;;;25.50;55.69
21574;BME280;10948;48.706;9.258;2023-06-10T06:31:18;97458.66;;;25.57;55.49
21574;BME280;10948;48.706;9.258;2023-06-10T06:33:43;97452.44;;;25.50;55.85
21574;BME280;10948;48.706;9.258;2023-06-10T06:36:08;97456.72;;;25.23;56.26
21574;BME280;10948;48.706;9.258;2023-06-10T06:38:33;97463.34;;;24.92;56.72
21574;BME280;10948;48.706;9.258;2023-06-10T06:40:58;97459.06;;;25.33;57.47
21574;BME280;10948;48.706;9.258;2023-06-10T06:43:28;97456.75;;;25.09;57.98
21574;BME280;10948;48.706;9.258;2023-06-10T06:45:53;97453.06;;;25.10;57.64
21574;BME280;10948;48.706;9.258;2023-06-10T06:48:18;97464.00;;;25.57;56.05
21574;BME280;10948;48.706;9.258;2023-06-10T06:50:43;97462.75;;;26.42;54.86
21574;BME280;10948;48.706;9.258;2023-06-10T06:53:08;97459.16;;;25.67;56.17
21574;BME280;10948;48.706;9.258;2023-06-10T06:55:34;97463.00;;;25.58;56.54
21574;BME280;10948;48.706;9.258;2023-06-10T06:57:59;97472.75;;;25.72;55.69
21574;BME280;10948;48.706;9.258;2023-06-10T07:00:27;97473.78;;;25.50;55.93
21574;BME280;10948;48.706;9.258;2023-06-10T07:02:52;97474.66;;;25.57;55.92
21574;BME280;10948;48.706;9.258;2023-06-10T07:05:18;97475.97;;;26.16;53.98
21574;BME280;10948;48.706;9.258;2023-06-10T07:07:43;97482.72;;;26.12;53.92
21574;BME280;10948;48.706;9.258;2023-06-10T07:10:08;97477.91;;;26.35;52.94
21574;BME280;10948;48.706;9.258;2023-06-10T07:12:33;97484.16;;;26.89;52.98
21574;BME280;10948;48.706;9.258;2023-06-10T07:14:59;97481.34;;;27.03;51.66
21574;BME280;10948;48.706;9.258;2023-06-10T07:17:24;97481.53;;;26.95;51.81
21574;BME280;10948;48.706;9.258;2023-06-10T07:19:49;97482.06;;;27.44;52.11
21574;BME280;10948;48.706;9.258;2023-06-10T07:22:16;97476.09;;;27.49;50.81
21574;BME280;10948;48.706;9.258;2023-06-10T07:24:42;97478.31;;;30.42;46.49
21574;BME280;10948;48.706;9.258;2023-06-10T07:27:08;97477.69;;;33.36;40.06
21574;BME280;10948;48.706;9.258;2023-06-10T07:29:33;97474.06;;;35.01;38.29
21574;BME280;10948;48.706;9.258;2023-06-10T07:32:00;97482.34;;;34.73;38.09
21574;BME280;10948;48.706;9.258;2023-06-10T07:34:25;97475.16;;;34.62;37.78
21574;BME280;10948;48.706;9.258;2023-06-10T07:36:51;97472.47;;;35.79;37.45
21574;BME280;10948;48.706;9.258;2023-06-10T07:39:17;97480.59;;;36.42;35.87
21574;BME280;10948;48.706;9.258;2023-06-10T07:41:42;97477.16;;;34.71;37.35
21574;BME280;10948;48.706;9.258;2023-06-10T07:44:08;97478.56;;;35.17;36.69
21574;BME280;10948;48.706;9.258;2023-06-10T07:46:33;97475.25;;;35.31;36.08
21574;BME280;10948;48.706;9.258;2023-06-10T07:48:58;97480.59;;;36.47;35.43
21574;BME280;10948;48.706;9.258;2023-06-10T07:51:23;97479.69;;;36.00;35.35
21574;BME280;10948;48.706;9.258;2023-06-10T07:53:48;97485.44;;;35.24;36.12
21574;BME280;10948;48.706;9.258;2023-06-10T07:56:14;97473.03;;;35.55;35.82
21574;BME280;10948;48.706;9.258;2023-06-10T07:58:39;97484.25;;;36.26;34.91
21574;BME280;10948;48.706;9.258;2023-06-10T08:01:04;97472.63;;;36.72;34.68
21574;BME280;10948;48.706;9.258;2023-06-10T08:03:30;97478.88;;;37.34;33.63
21574;BME280;10948;48.706;9.258;2023-06-10T08:05:55;97480.16;;;37.17;34.17
21574;BME280;10948;48.706;9.258;2023-06-10T08:08:20;97467.44;;;35.66;35.62
21574;BME280;10948;48.706;9.258;2023-06-10T08:10:45;97476.31;;;39.08;32.42
21574;BME280;10948;48.706;9.258;2023-06-10T08:13:10;97480.28;;;35.01;34.91
21574;BME280;10948;48.706;9.258;2023-06-10T08:15:36;97475.69;;;36.44;35.25
21574;BME280;10948;48.706;9.258;2023-06-10T08:18:01;97465.75;;;37.11;34.61
21574;BME280;10948;48.706;9.258;2023-06-10T08:20:26;97476.50;;;39.75;31.58
21574;BME280;10948;48.706;9.258;2023-06-10T08:22:51;97475.03;;;38.90;32.12
21574;BME280;10948;48.706;9.258;2023-06-10T08:25:17;97481.94;;;38.58;31.68
21574;BME280;10948;48.706;9.258;2023-06-10T08:27:42;97482.41;;;38.75;31.59
21574;BME280;10948;48.706;9.258;2023-06-10T08:30:07;97477.03;;;38.55;32.58
21574;BME280;10948;48.706;9.258;2023-06-10T08:32:35;97479.69;;;39.48;31.66
21574;BME280;10948;48.706;9.258;2023-06-10T08:35:00;97477.25;;;36.72;33.73
21574;BME280;10948;48.706;9.258;2023-06-10T08:37:25;97478.19;;;39.12;31.45
21574;BME280;10948;48.706;9.258;2023-06-10T08:39:50;97471.78;;;38.88;31.79
21574;BME280;10948;48.706;9.258;2023-06-10T08:42:20;97469.69;;;40.67;30.19
21574;BME280;10948;48.706;9.258;2023-06-10T08:44:47;97472.00;;;40.79;30.17
21574;BME280;10948;48.706;9.258;2023-06-10T08:47:15;97465.38;;;38.04;31.82
21574;BME280;10948;48.706;9.258;2023-06-10T08:49:46;97471.91;;;40.89;29.40
21574;BME280;10948;48.706;9.258;2023-06-10T08:52:16;97470.00;;;39.71;31.69
21574;BME280;10948;48.706;9.258;2023-06-10T08:55:03;97464.44;;;40.19;30.00
21574;BME280;10948;48.706;9.258;2023-06-10T08:57:27;97467.78;;;41.15;29.37
21574;BME280;10948;48.706;9.258;2023-06-10T08:59:53;97467.91;;;41.47;28.92
21574;BME280;10948;48.706;9.258;2023-06-10T09:02:18;97463.06;;;38.81;31.80
21574;BME280;10948;48.706;9.258;2023-06-10T09:04:46;97463.66;;;39.80;30.18
21574;BME280;10948;48.706;9.258;2023-06-10T09:07:11;97452.59;;;41.04;29.11
21574;BME280;10948;48.706;9.258;2023-06-10T09:09:37;97454.38;;;42.38;28.64
21574;BME280;10948;48.706;9.258;2023-06-10T09:12:03;97450.66;;;36.32;33.66
21574;BME280;10948;48.706;9.258;2023-06-10T09:14:28;97454.22;;;32.97;37.65
21574;BME280;10948;48.706;9.258;2023-06-10T09:16:53;97451.47;;;33.98;37.75
21574;BME280;10948;48.706;9.258;2023-06-10T09:19:21;97445.13;;;33.59;37.12
21574;BME280;10948;48.706;9.258;2023-06-10T09:21:47;97447.72;;;33.82;37.89
21574;BME280;10948;48.706;9.258;2023-06-10T09:24:12;97445.00;;;34.53;37.23
21574;BME280;10948;48.706;9.258;2023-06-10T09:26:38;97440.19;;;34.01;36.92
21574;BME280;10948;48.706;9.258;2023-06-10T09:29:04;97454.38;;;33.47;38.40
21574;BME280;10948;48.706;9.258;2023-06-10T09:31:30;97454.81;;;34.59;37.81
21574;BME280;10948;48.706;9.258;2023-06-10T09:34:04;97450.69;;;35.16;37.36
21574;BME280;10948;48.706;9.258;2023-06-10T09:36:29;97438.09;;;35.27;37.56
21574;BME280;10948;48.706;9.258;2023-06-10T09:38:56;97447.28;;;36.57;35.90
21574;BME280;10948;48.706;9.258;2023-06-10T09:41:21;97440.59;;;35.33;36.13
21574;BME280;10948;48.706;9.258;2023-06-10T09:43:46;97439.44;;;35.56;36.25
21574;BME280;10948;48.706;9.258;2023-06-10T09:46:14;97449.78;;;34.84;36.81
21574;BME280;10948;48.706;9.258;2023-06-10T09:48:41;97439.63;;;33.99;38.08
21574;BME280;10948;48.706;9.258;2023-06-10T09:51:11;97438.88;;;31.89;39.08
21574;BME280;10948;48.706;9.258;2023-06-10T09:53:37;97438.47;;;31.04;41.22
21574;BME280;10948;48.706;9.258;2023-06-10T09:56:02;97435.72;;;33.45;39.45
21574;BME280;10948;48.706;9.258;2023-06-10T09:58:37;97438.00;;;34.36;37.58
21574;BME280;10948;48.706;9.258;2023-06-10T10:01:08;97432.84;;;35.68;35.59
21574;BME280;10948;48.706;9.258;2023-06-10T10:03:33;97428.50;;;35.72;35.76
21574;BME280;10948;48.706;9.258;2023-06-10T10:05:59;97428.66;;;34.43;37.54
21574;BME280;10948;48.706;9.258;2023-06-10T10:08:25;97435.06;;;33.10;38.33
21574;BME280;10948;48.706;9.258;2023-06-10T10:10:50;97432.00;;;33.79;36.62
21574;BME280;10948;48.706;9.258;2023-06-10T10:13:15;97425.38;;;34.41;36.29
21574;BME280;10948;48.706;9.258;2023-06-10T10:15:41;97420.47;;;35.24;36.36
21574;BME280;10948;48.706;9.258;2023-06-10T10:18:08;97429.16;;;34.40;37.72
21574;BME280;10948;48.706;9.258;2023-06-10T10:20:35;97421.78;;;35.48;36.22
21574;BME280;10948;48.706;9.258;2023-06-10T10:23:02;97422.22;;;31.69;39.41
21574;BME280;10948;48.706;9.258;2023-06-10T10:25:28;97421.44;;;31.40;40.28
21574;BME280;10948;48.706;9.258;2023-06-10T10:27:56;97413.38;;;32.77;40.25
21574;BME280;10948;48.706;9.258;2023-06-10T10:30:22;97403.69;;;32.19;39.10
21574;BME280;10948;48.706;9.258;2023-06-10T10:33:00;97423.16;;;33.84;38.34
21574;BME280;10948;48.706;9.258;2023-06-10T10:35:30;97413.19;;;35.03;35.98
21574;BME280;10948;48.706;9.258;2023-06-10T10:37:55;97425.88;;;34.76;34.77
21574;BME280;10948;48.706;9.258;2023-06-10T10:40:21;97426.56;;;35.15;35.08
21574;BME280;10948;48.706;9.258;2023-06-10T10:42:47;97416.88;;;35.19;35.65
21574;BME280;10948;48.706;9.258;2023-06-10T10:45:13;97414.72;;;35.74;35.28
21574;BME280;10948;48.706;9.258;2023-06-10T10:47:38;97417.09;;;34.69;36.07
21574;BME280;10948;48.706;9.258;2023-06-10T10:50:14;97409.88;;;33.99;36.41
21574;BME280;10948;48.706;9.258;2023-06-10T10:55:23;97403.25;;;34.44;35.45
21574;BME280;10948;48.706;9.258;2023-06-10T10:58:05;97393.97;;;31.60;38.90
21574;BME280;10948;48.706;9.258;2023-06-10T11:00:32;97391.47;;;33.18;38.43
21574;BME280;10948;48.706;9.258;2023-06-10T11:02:58;97397.75;;;31.94;39.40
21574;BME280;10948;48.706;9.258;2023-06-10T11:05:37;97407.56;;;34.07;36.34
21574;BME280;10948;48.706;9.258;2023-06-10T11:08:03;97400.97;;;35.85;34.36
21574;BME280;10948;48.706;9.258;2023-06-10T11:11:16;97402.59;;;36.69;33.44
21574;BME280;10948;48.706;9.258;2023-06-10T11:13:15;97405.19;;;33.17;36.96
21574;BME280;10948;48.706;9.258;2023-06-10T11:15:44;97401.34;;;35.09;35.32
21574;BME280;10948;48.706;9.258;2023-06-10T11:20:41;97401.13;;;36.05;32.95
21574;BME280;10948;48.706;9.258;2023-06-10T11:26:19;97386.13;;;32.39;37.23
21574;BME280;10948;48.706;9.258;2023-06-10T11:31:20;97402.47;;;34.27;34.49
21574;BME280;10948;48.706;9.258;2023-06-10T11:33:52;97387.34;;;35.17;34.60
21574;BME280;10948;48.706;9.258;2023-06-10T11:36:17;97385.19;;;35.46;34.06
21574;BME280;10948;48.706;9.258;2023-06-10T11:38:42;97382.56;;;35.87;34.10
21574;BME280;10948;48.706;9.258;2023-06-10T11:41:08;97384.34;;;36.08;33.15
21574;BME280;10948;48.706;9.258;2023-06-10T11:43:34;97385.78;;;34.73;33.79
21574;BME280;10948;48.706;9.258;2023-06-10T11:45:59;97382.75;;;34.10;34.97
21574;BME280;10948;48.706;9.258;2023-06-10T11:48:25;97385.81;;;35.26;33.79
21574;BME280;10948;48.706;9.258;2023-06-10T11:50:53;97385.50;;;35.49;34.46
21574;BME280;10948;48.706;9.258;2023-06-10T11:53:18;97381.00;;;35.28;33.96
21574;BME280;10948;48.706;9.258;2023-06-10T11:55:45;97382.78;;;33.44;35.63
21574;BME280;10948;48.706;9.258;2023-06-10T12:03:10;97376.97;;;33.52;35.84
21574;BME280;10948;48.706;9.258;2023-06-10T12:05:35;97377.28;;;33.72;35.93
21574;BME280;10948;48.706;9.258;2023-06-10T12:08:10;97364.53;;;33.51;35.36
21574;BME280;10948;48.706;9.258;2023-06-10T12:10:40;97364.84;;;31.92;38.03
21574;BME280;10948;48.706;9.258;2023-06-10T12:13:05;97366.25;;;32.96;37.39
21574;BME280;10948;48.706;9.258;2023-06-10T12:15:31;97363.88;;;34.53;36.00
21574;BME280;10948;48.706;9.258;2023-06-10T12:17:57;97363.31;;;34.73;37.77
21574;BME280;10948;48.706;9.258;2023-06-10T12:20:29;97362.69;;;35.45;35.50
21574;BME280;10948;48.706;9.258;2023-06-10T12:22:55;97365.25;;;34.34;35.02
21574;BME280;10948;48.706;9.258;2023-06-10T12:25:27;97364.13;;;34.30;35.51
21574;BME280;10948;48.706;9.258;2023-06-10T12:27:53;97359.44;;;35.43;35.33
21574;BME280;10948;48.706;9.258;2023-06-10T12:30:19;97353.72;;;35.13;34.40
21574;BME280;10948;48.706;9.258;2023-06-10T12:32:45;97361.28;;;33.82;35.58
21574;BME280;10948;48.706;9.258;2023-06-10T12:35:11;97360.25;;;33.72;36.61
21574;BME280;10948;48.706;9.258;2023-06-10T12:37:38;97360.03;;;34.28;36.04
21574;BME280;10948;48.706;9.258;2023-06-10T12:40:03;97363.38;;;34.56;34.57
21574;BME280;10948;48.706;9.258;2023-06-10T12:42:31;97354.84;;;33.88;35.36
21574;BME280;10948;48.706;9.258;2023-06-10T12:44:58;97358.84;;;34.40;35.04
21574;BME280;10948;48.706;9.258;2023-06-10T12:47:32;97356.66;;;33.66;35.86
21574;BME280;10948;48.706;9.258;2023-06-10T12:49:59;97350.53;;;34.68;35.69
21574;BME280;10948;48.706;9.258;2023-06-10T12:52:25;97352.00;;;35.29;35.19
21574;BME280;10948;48.706;9.258;2023-06-10T12:54:50;97358.84;;;34.83;35.53
21574;BME280;10948;48.706;9.258;2023-06-10T12:57:17;97354.03;;;35.17;35.44
21574;BME280;10948;48.706;9.258;2023-06-10T12:59:42;97351.50;;;34.36;34.09
21574;BME280;10948;48.706;9.258;2023-06-10T13:02:14;97344.91;;;34.10;35.41
21574;BME280;10948;48.706;9.258;2023-06-10T13:04:40;97344.63;;;34.28;35.73
21574;BME280;10948;48.706;9.258;2023-06-10T13:07:05;97346.38;;;34.39;34.91
21574;BME280;10948;48.706;9.258;2023-06-10T13:09:31;97339.50;;;33.56;35.01
21574;BME280;10948;48.706;9.258;2023-06-10T13:11:56;97339.34;;;33.29;35.84
21574;BME280;10948;48.706;9.258;2023-06-10T13:14:22;97337.53;;;33.51;35.66
21574;BME280;10948;48.706;9.258;2023-06-10T13:16:47;97329.00;;;31.46;38.48
21574;BME280;10948;48.706;9.258;2023-06-10T13:19:12;97325.63;;;31.50;37.71